sensor_id;sensor_type;location;lat;lon;timestamp;pressure;altitude;pressure_sealevel;temperature;humidity
23433;BME280;41331;45.412;10.992;2022-07-04T00:01:22;100901.66;;;28.70;51.20
23433;BME280;41331;45.412;10.992;2022-07-04T00:03:49;100918.94;;;28.81;51.16
23433;BME280;41331;45.412;10.992;2022-07-04T00:06:17;100907.63;;;28.72;50.41
23433;BME280;41331;45.412;10.992;2022-07-04T00:08:44;100905.22;;;28.70;51.25
23433;BME280;41331;45.412;10.992;2022-07-04T00:11:11;100896.06;;;28.70;50.71
23433;BME280;41331;45.412;10.992;2022-07-04T00:13:39;100893.59;;;28.72;51.00
23433;BME280;41331;45.412;10.992;2022-07-04T00:16:06;100898.53;;;28.68;51.07
23433;BME280;41331;45.412;10.992;2022-07-04T00:18:33;100897.28;;;28.69;50.46
23433;BME280;41331;45.412;10.992;2022-07-04T00:21:04;100901.84;;;28.62;51.62
23433;BME280;41331;45.412;10.992;2022-07-04T00:23:31;100893.59;;;28.43;51.26
23433;BME280;41331;45.412;10.992;2022-07-04T00:25:58;100900.84;;;28.40;51.33
23433;BME280;41331;45.412;10.992;2022-07-04T00:28:26;100901.22;;;28.42;51.00
23433;BME280;41331;45.412;10.992;2022-07-04T00:30:53;100903.34;;;28.51;50.86
23433;BME280;41331;45.412;10.992;2022-07-04T00:33:21;100904.50;;;28.53;50.34
23433;BME280;41331;45.412;10.992;2022-07-04T00:35:48;100906.31;;;28.60;50.11
23433;BME280;41331;45.412;10.992;2022-07-04T00:38:16;100907.16;;;28.73;50.26
23433;BME280;41331;45.412;10.992;2022-07-04T00:40:43;100907.47;;;28.62;49.51
23433;BME280;41331;45.412;10.992;2022-07-04T00:43:11;100906.41;;;28.56;49.63
23433;BME280;41331;45.412;10.992;2022-07-04T00:45:38;100906.22;;;28.63;51.48
23433;BME280;41331;45.412;10.992;2022-07-04T00:48:05;100903.25;;;28.54;50.90
23433;BME280;41331;45.412;10.992;2022-07-04T00:50:33;100903.59;;;28.56;50.83
23433;BME280;41331;45.412;10.992;2022-07-04T00:53:00;100891.03;;;28.48;51.56
23433;BME280;41331;45.412;10.992;2022-07-04T00:55:31;100894.91;;;28.38;52.69
23433;BME280;41331;45.412;10.992;2022-07-04T00:57:59;100889.72;;;28.36;52.33
23433;BME280;41331;45.412;10.992;2022-07-04T01:00:26;100896.22;;;28.33;52.52
23433;BME280;41331;45.412;10.992;2022-07-04T01:02:54;100889.22;;;28.42;52.73
23433;BME280;41331;45.412;10.992;2022-07-04T01:05:21;100891.56;;;28.43;52.67
23433;BME280;41331;45.412;10.992;2022-07-04T01:07:49;100894.13;;;28.37;53.56
23433;BME280;41331;45.412;10.992;2022-07-04T01:10:17;100885.63;;;28.25;54.85
23433;BME280;41331;45.412;10.992;2022-07-04T01:12:44;100884.56;;;28.19;54.07
23433;BME280;41331;45.412;10.992;2022-07-04T01:15:11;100873.94;;;27.97;53.80
23433;BME280;41331;45.412;10.992;2022-07-04T01:17:39;100873.91;;;27.81;54.51
23433;BME280;41331;45.412;10.992;2022-07-04T01:20:11;100862.06;;;27.77;53.91
23433;BME280;41331;45.412;10.992;2022-07-04T01:22:39;100869.47;;;27.83;54.20
23433;BME280;41331;45.412;10.992;2022-07-04T01:25:07;100872.78;;;27.95;53.41
23433;BME280;41331;45.412;10.992;2022-07-04T01:27:35;100872.88;;;28.07;54.03
23433;BME280;41331;45.412;10.992;2022-07-04T01:30:02;100865.00;;;28.02;53.01
23433;BME280;41331;45.412;10.992;2022-07-04T01:32:30;100870.50;;;28.06;52.17
23433;BME280;41331;45.412;10.992;2022-07-04T01:34:57;100874.53;;;28.05;51.06
23433;BME280;41331;45.412;10.992;2022-07-04T01:37:27;100881.09;;;28.14;52.23
23433;BME280;41331;45.412;10.992;2022-07-04T01:39:54;100880.66;;;28.00;52.70
23433;BME280;41331;45.412;10.992;2022-07-04T01:42:21;100893.16;;;27.79;53.03
23433;BME280;41331;45.412;10.992;2022-07-04T01:44:49;100881.97;;;27.79;52.07
23433;BME280;41331;45.412;10.992;2022-07-04T01:47:16;100887.38;;;27.86;52.44
23433;BME280;41331;45.412;10.992;2022-07-04T01:49:43;100896.22;;;27.84;51.60
23433;BME280;41331;45.412;10.992;2022-07-04T01:52:11;100893.66;;;27.74;53.48
23433;BME280;41331;45.412;10.992;2022-07-04T01:54:38;100892.66;;;27.64;53.24
23433;BME280;41331;45.412;10.992;2022-07-04T01:57:06;100886.13;;;27.71;52.20
23433;BME280;41331;45.412;10.992;2022-07-04T01:59:33;100881.19;;;27.78;52.23
23433;BME280;41331;45.412;10.992;2022-07-04T02:02:19;100880.91;;;27.89;51.79
23433;BME280;41331;45.412;10.992;2022-07-04T02:04:47;100882.94;;;27.88;52.49
23433;BME280;41331;45.412;10.992;2022-07-04T02:07:15;100872.44;;;27.93;52.47
23433;BME280;41331;45.412;10.992;2022-07-04T02:09:42;100879.69;;;27.90;51.82
23433;BME280;41331;45.412;10.992;2022-07-04T02:12:10;100881.00;;;28.02;51.44
23433;BME280;41331;45.412;10.992;2022-07-04T02:14:56;100869.88;;;28.14;51.57
23433;BME280;41331;45.412;10.992;2022-07-04T02:17:23;100861.66;;;28.24;51.07
23433;BME280;41331;45.412;10.992;2022-07-04T02:19:51;100856.16;;;28.20;51.32
23433;BME280;41331;45.412;10.992;2022-07-04T02:22:18;100856.94;;;28.21;50.25
23433;BME280;41331;45.412;10.992;2022-07-04T02:24:46;100852.47;;;28.23;51.29
23433;BME280;41331;45.412;10.992;2022-07-04T02:27:14;100852.47;;;28.23;50.23
23433;BME280;41331;45.412;10.992;2022-07-04T02:29:44;100848.13;;;28.22;51.50
23433;BME280;41331;45.412;10.992;2022-07-04T02:32:11;100858.00;;;28.10;51.01
23433;BME280;41331;45.412;10.992;2022-07-04T02:34:38;100863.50;;;28.14;51.12
23433;BME280;41331;45.412;10.992;2022-07-04T02:37:06;100856.88;;;28.08;51.41
23433;BME280;41331;45.412;10.992;2022-07-04T02:39:34;100856.50;;;28.06;51.68
23433;BME280;41331;45.412;10.992;2022-07-04T02:42:01;100852.06;;;28.08;50.71
23433;BME280;41331;45.412;10.992;2022-07-04T02:44:29;100847.09;;;28.00;52.73
23433;BME280;41331;45.412;10.992;2022-07-04T02:46:57;100849.16;;;27.63;51.83
23433;BME280;41331;45.412;10.992;2022-07-04T02:49:24;100847.22;;;27.60;52.30
23433;BME280;41331;45.412;10.992;2022-07-04T02:51:52;100851.06;;;27.66;51.80
23433;BME280;41331;45.412;10.992;2022-07-04T02:54:19;100844.13;;;27.74;51.24
23433;BME280;41331;45.412;10.992;2022-07-04T02:56:47;100844.28;;;27.67;51.63
23433;BME280;41331;45.412;10.992;2022-07-04T02:59:14;100842.06;;;27.58;51.60
23433;BME280;41331;45.412;10.992;2022-07-04T03:01:41;100841.75;;;27.56;51.63
23433;BME280;41331;45.412;10.992;2022-07-04T03:04:09;100838.31;;;27.65;51.60
23433;BME280;41331;45.412;10.992;2022-07-04T03:06:39;100839.09;;;27.49;51.63
23433;BME280;41331;45.412;10.992;2022-07-04T03:09:07;100847.38;;;27.36;51.96
23433;BME280;41331;45.412;10.992;2022-07-04T03:11:35;100839.66;;;27.24;52.37
23433;BME280;41331;45.412;10.992;2022-07-04T03:14:02;100839.84;;;27.33;52.30
23433;BME280;41331;45.412;10.992;2022-07-04T03:16:30;100838.19;;;27.36;52.81
23433;BME280;41331;45.412;10.992;2022-07-04T03:18:57;100842.13;;;27.39;52.27
23433;BME280;41331;45.412;10.992;2022-07-04T03:21:25;100853.91;;;27.30;52.69
23433;BME280;41331;45.412;10.992;2022-07-04T03:23:52;100855.91;;;27.29;52.83
23433;BME280;41331;45.412;10.992;2022-07-04T03:26:27;100856.28;;;27.31;53.63
23433;BME280;41331;45.412;10.992;2022-07-04T03:28:58;100869.91;;;27.46;52.99
23433;BME280;41331;45.412;10.992;2022-07-04T03:31:27;100860.22;;;27.50;52.03
23433;BME280;41331;45.412;10.992;2022-07-04T03:33:55;100859.19;;;27.44;54.19
23433;BME280;41331;45.412;10.992;2022-07-04T03:36:23;100862.41;;;27.43;52.41
23433;BME280;41331;45.412;10.992;2022-07-04T03:38:50;100861.78;;;27.35;52.89
23433;BME280;41331;45.412;10.992;2022-07-04T03:41:18;100861.88;;;27.31;53.36
23433;BME280;41331;45.412;10.992;2022-07-04T03:43:45;100855.66;;;27.40;53.71
23433;BME280;41331;45.412;10.992;2022-07-04T03:46:13;100854.47;;;27.41;53.30
23433;BME280;41331;45.412;10.992;2022-07-04T03:48:40;100855.94;;;27.46;53.26
23433;BME280;41331;45.412;10.992;2022-07-04T03:51:12;100857.88;;;27.49;52.91
23433;BME280;41331;45.412;10.992;2022-07-04T03:53:41;100865.22;;;27.43;53.55
23433;BME280;41331;45.412;10.992;2022-07-04T03:56:09;100861.25;;;27.40;54.17
23433;BME280;41331;45.412;10.992;2022-07-04T03:58:37;100865.97;;;27.27;55.96
23433;BME280;41331;45.412;10.992;2022-07-04T04:01:04;100866.28;;;27.13;54.75
23433;BME280;41331;45.412;10.992;2022-07-04T04:03:32;100868.19;;;27.16;55.46
23433;BME280;41331;45.412;10.992;2022-07-04T04:06:18;100875.44;;;27.13;54.82
23433;BME280;41331;45.412;10.992;2022-07-04T04:08:45;100874.94;;;27.18;54.62
23433;BME280;41331;45.412;10.992;2022-07-04T04:11:13;100878.44;;;27.22;54.80
23433;BME280;41331;45.412;10.992;2022-07-04T04:13:40;100875.63;;;27.22;55.02
23433;BME280;41331;45.412;10.992;2022-07-04T04:16:08;100872.75;;;27.26;55.85
23433;BME280;41331;45.412;10.992;2022-07-04T04:18:36;100885.88;;;27.29;54.73
23433;BME280;41331;45.412;10.992;2022-07-04T04:21:07;100878.53;;;27.35;54.06
23433;BME280;41331;45.412;10.992;2022-07-04T04:23:34;100880.28;;;27.29;58.13
23433;BME280;41331;45.412;10.992;2022-07-04T04:26:02;100884.75;;;27.26;55.71
23433;BME280;41331;45.412;10.992;2022-07-04T04:28:29;100893.94;;;27.43;54.56
23433;BME280;41331;45.412;10.992;2022-07-04T04:30:56;100883.56;;;27.60;55.63
23433;BME280;41331;45.412;10.992;2022-07-04T04:33:24;100890.56;;;27.68;54.86
23433;BME280;41331;45.412;10.992;2022-07-04T04:35:51;100872.03;;;27.58;54.25
23433;BME280;41331;45.412;10.992;2022-07-04T04:38:19;100879.72;;;27.70;53.44
23433;BME280;41331;45.412;10.992;2022-07-04T04:40:46;100877.59;;;27.78;55.29
23433;BME280;41331;45.412;10.992;2022-07-04T04:43:14;100881.81;;;27.66;58.12
23433;BME280;41331;45.412;10.992;2022-07-04T04:45:41;100878.66;;;27.84;54.65
23433;BME280;41331;45.412;10.992;2022-07-04T04:48:09;100887.56;;;27.95;53.03
23433;BME280;41331;45.412;10.992;2022-07-04T04:50:36;100887.56;;;27.95;51.46
23433;BME280;41331;45.412;10.992;2022-07-04T04:53:04;100882.66;;;27.99;52.02
23433;BME280;41331;45.412;10.992;2022-07-04T04:55:31;100883.81;;;28.02;52.40
23433;BME280;41331;45.412;10.992;2022-07-04T04:58:02;100878.38;;;28.11;54.21
23433;BME280;41331;45.412;10.992;2022-07-04T05:00:30;100884.75;;;27.95;53.22
23433;BME280;41331;45.412;10.992;2022-07-04T05:02:57;100889.81;;;28.00;53.54
23433;BME280;41331;45.412;10.992;2022-07-04T05:05:25;100893.50;;;28.13;53.29
23433;BME280;41331;45.412;10.992;2022-07-04T05:07:53;100877.16;;;28.12;53.52
23433;BME280;41331;45.412;10.992;2022-07-04T05:10:20;100886.50;;;28.22;52.69
23433;BME280;41331;45.412;10.992;2022-07-04T05:12:47;100885.69;;;28.21;54.08
23433;BME280;41331;45.412;10.992;2022-07-04T05:15:15;100887.97;;;28.26;53.98
23433;BME280;41331;45.412;10.992;2022-07-04T05:17:42;100888.16;;;28.35;52.03
23433;BME280;41331;45.412;10.992;2022-07-04T05:20:13;100886.22;;;28.32;53.43
23433;BME280;41331;45.412;10.992;2022-07-04T05:22:40;100879.75;;;28.35;53.68
23433;BME280;41331;45.412;10.992;2022-07-04T05:25:08;100878.75;;;28.58;51.69
23433;BME280;41331;45.412;10.992;2022-07-04T05:27:36;100876.25;;;28.77;50.97
23433;BME280;41331;45.412;10.992;2022-07-04T05:30:04;100868.75;;;29.03;50.61
23433;BME280;41331;45.412;10.992;2022-07-04T05:32:32;100856.22;;;28.91;51.80
23433;BME280;41331;45.412;10.992;2022-07-04T05:35:00;100871.09;;;29.04;52.14
23433;BME280;41331;45.412;10.992;2022-07-04T05:37:27;100871.13;;;29.17;51.10
23433;BME280;41331;45.412;10.992;2022-07-04T05:39:55;100868.78;;;29.28;50.80
23433;BME280;41331;45.412;10.992;2022-07-04T05:42:22;100872.56;;;29.22;52.37
23433;BME280;41331;45.412;10.992;2022-07-04T05:44:50;100872.00;;;29.27;50.80
23433;BME280;41331;45.412;10.992;2022-07-04T05:47:17;100878.88;;;29.38;51.77
23433;BME280;41331;45.412;10.992;2022-07-04T05:49:47;100880.78;;;29.29;51.29
23433;BME280;41331;45.412;10.992;2022-07-04T05:52:14;100872.91;;;29.24;52.26
23433;BME280;41331;45.412;10.992;2022-07-04T05:54:42;100880.31;;;29.30;51.75
23433;BME280;41331;45.412;10.992;2022-07-04T05:57:10;100876.41;;;29.40;51.40
23433;BME280;41331;45.412;10.992;2022-07-04T05:59:37;100871.72;;;29.63;47.52
23433;BME280;41331;45.412;10.992;2022-07-04T06:02:05;100880.69;;;29.83;47.12
23433;BME280;41331;45.412;10.992;2022-07-04T06:04:32;100875.03;;;29.96;45.39
23433;BME280;41331;45.412;10.992;2022-07-04T06:07:00;100886.19;;;30.12;46.42
23433;BME280;41331;45.412;10.992;2022-07-04T06:09:27;100871.75;;;30.10;48.17
23433;BME280;41331;45.412;10.992;2022-07-04T06:11:55;100875.47;;;30.20;47.45
23433;BME280;41331;45.412;10.992;2022-07-04T06:14:22;100877.13;;;30.30;46.64
23433;BME280;41331;45.412;10.992;2022-07-04T06:16:49;100880.22;;;30.45;43.35
23433;BME280;41331;45.412;10.992;2022-07-04T06:19:17;100878.91;;;30.72;41.72
23433;BME280;41331;45.412;10.992;2022-07-04T06:21:48;100875.34;;;30.58;44.07
23433;BME280;41331;45.412;10.992;2022-07-04T06:24:15;100876.16;;;31.03;41.58
23433;BME280;41331;45.412;10.992;2022-07-04T06:26:43;100872.63;;;30.89;43.21
23433;BME280;41331;45.412;10.992;2022-07-04T06:29:10;100882.09;;;31.05;41.55
23433;BME280;41331;45.412;10.992;2022-07-04T06:31:38;100874.06;;;31.47;39.38
23433;BME280;41331;45.412;10.992;2022-07-04T06:34:06;100872.78;;;31.39;38.49
23433;BME280;41331;45.412;10.992;2022-07-04T06:36:52;100871.72;;;31.45;40.10
23433;BME280;41331;45.412;10.992;2022-07-04T06:39:20;100871.94;;;31.60;38.06
23433;BME280;41331;45.412;10.992;2022-07-04T06:41:47;100865.63;;;31.47;39.58
23433;BME280;41331;45.412;10.992;2022-07-04T06:44:14;100861.34;;;31.74;38.36
23433;BME280;41331;45.412;10.992;2022-07-04T06:46:42;100862.56;;;31.72;38.59
23433;BME280;41331;45.412;10.992;2022-07-04T06:49:13;100862.53;;;31.54;37.71
23433;BME280;41331;45.412;10.992;2022-07-04T06:51:40;100849.47;;;31.79;38.72
23433;BME280;41331;45.412;10.992;2022-07-04T06:54:08;100859.72;;;31.94;38.34
23433;BME280;41331;45.412;10.992;2022-07-04T06:56:35;100850.19;;;32.10;38.96
23433;BME280;41331;45.412;10.992;2022-07-04T06:59:03;100853.16;;;32.25;39.29
23433;BME280;41331;45.412;10.992;2022-07-04T07:01:32;100848.63;;;32.28;36.22
23433;BME280;41331;45.412;10.992;2022-07-04T07:03:59;100847.72;;;32.40;36.95
23433;BME280;41331;45.412;10.992;2022-07-04T07:06:27;100836.47;;;32.49;36.18
23433;BME280;41331;45.412;10.992;2022-07-04T07:08:54;100834.41;;;32.59;36.88
23433;BME280;41331;45.412;10.992;2022-07-04T07:11:22;100816.09;;;32.63;36.77
23433;BME280;41331;45.412;10.992;2022-07-04T07:13:50;100833.75;;;32.73;36.45
23433;BME280;41331;45.412;10.992;2022-07-04T07:16:20;100817.00;;;32.79;36.68
23433;BME280;41331;45.412;10.992;2022-07-04T07:18:50;100832.94;;;33.00;36.99
23433;BME280;41331;45.412;10.992;2022-07-04T07:21:17;100831.31;;;33.17;37.32
23433;BME280;41331;45.412;10.992;2022-07-04T07:23:44;100840.28;;;33.07;36.74
23433;BME280;41331;45.412;10.992;2022-07-04T07:26:12;100836.97;;;33.08;37.18
23433;BME280;41331;45.412;10.992;2022-07-04T07:28:39;100831.28;;;33.27;36.35
23433;BME280;41331;45.412;10.992;2022-07-04T07:31:07;100830.75;;;33.46;35.58
23433;BME280;41331;45.412;10.992;2022-07-04T07:33:35;100827.72;;;33.59;35.95
23433;BME280;41331;45.412;10.992;2022-07-04T07:36:04;100837.50;;;33.40;36.88
23433;BME280;41331;45.412;10.992;2022-07-04T07:38:31;100827.00;;;33.40;36.13
23433;BME280;41331;45.412;10.992;2022-07-04T07:40:59;100827.78;;;33.41;36.61
23433;BME280;41331;45.412;10.992;2022-07-04T07:43:26;100824.47;;;33.75;35.10
23433;BME280;41331;45.412;10.992;2022-07-04T07:45:54;100822.13;;;33.50;35.63
23433;BME280;41331;45.412;10.992;2022-07-04T07:48:21;100823.16;;;33.86;34.88
23433;BME280;41331;45.412;10.992;2022-07-04T07:50:49;100822.22;;;34.27;35.01
23433;BME280;41331;45.412;10.992;2022-07-04T07:53:16;100822.00;;;33.92;33.63
23433;BME280;41331;45.412;10.992;2022-07-04T07:55:44;100826.13;;;33.58;35.13
23433;BME280;41331;45.412;10.992;2022-07-04T07:58:11;100824.50;;;33.42;34.17
23433;BME280;41331;45.412;10.992;2022-07-04T08:00:39;100833.16;;;33.63;34.52
23433;BME280;41331;45.412;10.992;2022-07-04T08:03:23;100834.75;;;33.64;34.71
23433;BME280;41331;45.412;10.992;2022-07-04T08:06:10;100838.53;;;33.85;34.39
23433;BME280;41331;45.412;10.992;2022-07-04T08:08:37;100840.91;;;33.53;34.05
23433;BME280;41331;45.412;10.992;2022-07-04T08:11:04;100832.97;;;33.42;34.74
23433;BME280;41331;45.412;10.992;2022-07-04T08:13:32;100842.31;;;33.82;34.13
23433;BME280;41331;45.412;10.992;2022-07-04T08:15:59;100849.47;;;33.92;32.42
23433;BME280;41331;45.412;10.992;2022-07-04T08:18:27;100850.25;;;34.16;32.25
23433;BME280;41331;45.412;10.992;2022-07-04T08:20:55;100848.41;;;34.52;32.50
23433;BME280;41331;45.412;10.992;2022-07-04T08:23:39;100849.50;;;34.55;32.25
23433;BME280;41331;45.412;10.992;2022-07-04T08:26:18;100842.47;;;34.50;31.85
23433;BME280;41331;45.412;10.992;2022-07-04T08:28:46;100849.44;;;34.40;32.61
23433;BME280;41331;45.412;10.992;2022-07-04T08:31:13;100844.28;;;33.99;33.73
23433;BME280;41331;45.412;10.992;2022-07-04T08:34:00;100841.78;;;34.16;32.44
23433;BME280;41331;45.412;10.992;2022-07-04T08:36:28;100846.81;;;33.88;33.60
23433;BME280;41331;45.412;10.992;2022-07-04T08:38:55;100852.63;;;33.94;33.07
23433;BME280;41331;45.412;10.992;2022-07-04T08:41:23;100853.69;;;34.20;33.28
23433;BME280;41331;45.412;10.992;2022-07-04T08:43:53;100853.19;;;34.46;32.31
23433;BME280;41331;45.412;10.992;2022-07-04T08:46:25;100855.75;;;34.88;30.70
23433;BME280;41331;45.412;10.992;2022-07-04T08:48:55;100854.72;;;35.00;30.22
23433;BME280;41331;45.412;10.992;2022-07-04T08:51:44;100849.91;;;35.21;31.58
23433;BME280;41331;45.412;10.992;2022-07-04T08:54:14;100847.34;;;34.79;30.63
23433;BME280;41331;45.412;10.992;2022-07-04T08:57:00;100841.34;;;33.94;31.43
23433;BME280;41331;45.412;10.992;2022-07-04T08:59:46;100839.00;;;33.59;32.78
23433;BME280;41331;45.412;10.992;2022-07-04T09:02:18;100828.72;;;33.47;33.10
23433;BME280;41331;45.412;10.992;2022-07-04T09:04:46;100823.28;;;33.34;30.41
23433;BME280;41331;45.412;10.992;2022-07-04T09:07:14;100835.41;;;33.16;30.64
23433;BME280;41331;45.412;10.992;2022-07-04T09:09:41;100836.22;;;33.50;30.30
23433;BME280;41331;45.412;10.992;2022-07-04T09:12:16;100833.75;;;33.43;31.59
23433;BME280;41331;45.412;10.992;2022-07-04T09:14:43;100838.16;;;33.68;30.85
23433;BME280;41331;45.412;10.992;2022-07-04T09:17:10;100839.28;;;33.61;31.08
23433;BME280;41331;45.412;10.992;2022-07-04T09:19:38;100832.81;;;33.37;32.62
23433;BME280;41331;45.412;10.992;2022-07-04T09:22:08;100837.41;;;33.25;31.55
23433;BME280;41331;45.412;10.992;2022-07-04T09:24:47;100852.28;;;33.25;32.04
23433;BME280;41331;45.412;10.992;2022-07-04T09:27:48;100870.16;;;33.13;32.93
23433;BME280;41331;45.412;10.992;2022-07-04T09:30:19;100889.19;;;33.04;33.29
23433;BME280;41331;45.412;10.992;2022-07-04T09:32:54;100897.47;;;32.98;33.01
23433;BME280;41331;45.412;10.992;2022-07-04T09:35:29;100902.00;;;32.86;33.19
23433;BME280;41331;45.412;10.992;2022-07-04T09:37:59;100901.56;;;32.79;34.50
23433;BME280;41331;45.412;10.992;2022-07-04T09:40:32;100909.84;;;32.73;35.91
23433;BME280;41331;45.412;10.992;2022-07-04T09:43:02;100904.03;;;32.58;36.64
23433;BME280;41331;45.412;10.992;2022-07-04T09:45:56;100891.22;;;32.57;35.73
23433;BME280;41331;45.412;10.992;2022-07-04T09:48:23;100884.34;;;32.49;36.30
23433;BME280;41331;45.412;10.992;2022-07-04T09:50:52;100871.81;;;32.50;35.51
23433;BME280;41331;45.412;10.992;2022-07-04T09:53:27;100866.97;;;32.60;35.73
23433;BME280;41331;45.412;10.992;2022-07-04T09:55:54;100870.56;;;32.51;35.80
23433;BME280;41331;45.412;10.992;2022-07-04T09:58:22;100859.00;;;32.49;36.08
23433;BME280;41331;45.412;10.992;2022-07-04T10:00:49;100849.59;;;32.61;35.90
23433;BME280;41331;45.412;10.992;2022-07-04T10:03:21;100852.69;;;32.72;36.71
23433;BME280;41331;45.412;10.992;2022-07-04T10:06:08;100857.69;;;32.87;36.00
23433;BME280;41331;45.412;10.992;2022-07-04T10:08:41;100847.63;;;33.56;35.60
23433;BME280;41331;45.412;10.992;2022-07-04T10:11:10;100858.34;;;34.47;34.33
23433;BME280;41331;45.412;10.992;2022-07-04T10:13:45;100861.63;;;34.85;33.33
23433;BME280;41331;45.412;10.992;2022-07-04T10:16:15;100871.47;;;35.19;32.12
23433;BME280;41331;45.412;10.992;2022-07-04T10:18:44;100869.78;;;35.42;30.65
23433;BME280;41331;45.412;10.992;2022-07-04T10:21:12;100868.38;;;35.67;29.94
23433;BME280;41331;45.412;10.992;2022-07-04T10:23:40;100869.09;;;35.97;29.84
23433;BME280;41331;45.412;10.992;2022-07-04T10:26:09;100861.47;;;36.29;29.64
23433;BME280;41331;45.412;10.992;2022-07-04T10:28:37;100862.38;;;35.79;30.11
23433;BME280;41331;45.412;10.992;2022-07-04T10:31:05;100868.84;;;35.15;30.68
23433;BME280;41331;45.412;10.992;2022-07-04T10:33:34;100868.13;;;34.76;31.13
23433;BME280;41331;45.412;10.992;2022-07-04T10:36:06;100865.59;;;34.93;29.90
23433;BME280;41331;45.412;10.992;2022-07-04T10:38:55;100874.25;;;34.89;29.81
23433;BME280;41331;45.412;10.992;2022-07-04T10:41:23;100869.31;;;34.99;30.31
23433;BME280;41331;45.412;10.992;2022-07-04T10:43:56;100866.13;;;35.06;30.38
23433;BME280;41331;45.412;10.992;2022-07-04T10:49:17;100864.94;;;34.98;29.79
23433;BME280;41331;45.412;10.992;2022-07-04T10:54:15;100853.69;;;34.74;30.27
23433;BME280;41331;45.412;10.992;2022-07-04T10:59:29;100845.00;;;35.37;29.60
23433;BME280;41331;45.412;10.992;2022-07-04T11:05:10;100835.34;;;35.78;27.67
23433;BME280;41331;45.412;10.992;2022-07-04T11:18:08;100820.00;;;37.04;26.43
23433;BME280;41331;45.412;10.992;2022-07-04T11:20:37;100821.97;;;37.29;25.65
23433;BME280;41331;45.412;10.992;2022-07-04T11:23:11;100814.63;;;37.43;26.48
23433;BME280;41331;45.412;10.992;2022-07-04T11:25:41;100811.34;;;37.19;26.15
23433;BME280;41331;45.412;10.992;2022-07-04T11:31:06;100801.97;;;36.49;29.05
23433;BME280;41331;45.412;10.992;2022-07-04T11:33:34;100801.34;;;36.19;29.40
23433;BME280;41331;45.412;10.992;2022-07-04T11:36:08;100788.25;;;36.22;29.54
23433;BME280;41331;45.412;10.992;2022-07-04T11:39:03;100781.84;;;37.05;28.37
23433;BME280;41331;45.412;10.992;2022-07-04T11:41:43;100793.66;;;36.98;27.71
23433;BME280;41331;45.412;10.992;2022-07-04T11:44:33;100786.03;;;36.83;27.97
23433;BME280;41331;45.412;10.992;2022-07-04T11:52:20;100772.06;;;36.02;29.25
23433;BME280;41331;45.412;10.992;2022-07-04T11:55:10;100767.53;;;36.10;29.72
23433;BME280;41331;45.412;10.992;2022-07-04T11:57:48;100761.44;;;35.76;29.37
23433;BME280;41331;45.412;10.992;2022-07-04T12:00:20;100764.06;;;35.80;29.89
23433;BME280;41331;45.412;10.992;2022-07-04T12:02:48;100763.44;;;35.50;30.84
23433;BME280;41331;45.412;10.992;2022-07-04T12:05:17;100760.59;;;35.50;29.68
23433;BME280;41331;45.412;10.992;2022-07-04T12:07:47;100764.59;;;35.08;30.18
23433;BME280;41331;45.412;10.992;2022-07-04T12:10:35;100758.22;;;35.13;30.31
23433;BME280;41331;45.412;10.992;2022-07-04T12:13:14;100769.00;;;34.94;31.52
23433;BME280;41331;45.412;10.992;2022-07-04T12:15:49;100763.03;;;34.77;31.32
23433;BME280;41331;45.412;10.992;2022-07-04T12:18:29;100760.06;;;35.31;30.65
23433;BME280;41331;45.412;10.992;2022-07-04T12:21:13;100756.41;;;35.86;30.16
23433;BME280;41331;45.412;10.992;2022-07-04T12:23:50;100754.22;;;36.16;29.39
23433;BME280;41331;45.412;10.992;2022-07-04T12:26:33;100752.03;;;36.31;30.19
23433;BME280;41331;45.412;10.992;2022-07-04T12:29:02;100746.50;;;36.43;29.22
23433;BME280;41331;45.412;10.992;2022-07-04T12:31:42;100748.91;;;36.29;29.36
23433;BME280;41331;45.412;10.992;2022-07-04T12:34:17;100749.88;;;36.21;28.89
23433;BME280;41331;45.412;10.992;2022-07-04T12:36:52;100739.59;;;36.49;28.70
23433;BME280;41331;45.412;10.992;2022-07-04T12:39:34;100725.25;;;36.59;28.63
23433;BME280;41331;45.412;10.992;2022-07-04T12:42:05;100713.13;;;36.90;28.54
23433;BME280;41331;45.412;10.992;2022-07-04T12:44:35;100711.00;;;36.85;29.18
23433;BME280;41331;45.412;10.992;2022-07-04T12:47:04;100714.75;;;36.96;28.36
23433;BME280;41331;45.412;10.992;2022-07-04T12:49:45;100702.00;;;37.23;27.31
23433;BME280;41331;45.412;10.992;2022-07-04T12:52:16;100709.16;;;37.13;28.79
23433;BME280;41331;45.412;10.992;2022-07-04T12:55:02;100707.78;;;36.97;28.84
23433;BME280;41331;45.412;10.992;2022-07-04T12:57:29;100708.81;;;37.00;29.53
23433;BME280;41331;45.412;10.992;2022-07-04T12:59:57;100699.38;;;37.20;28.58
23433;BME280;41331;45.412;10.992;2022-07-04T13:02:45;100701.91;;;37.06;27.65
23433;BME280;41331;45.412;10.992;2022-07-04T13:05:12;100694.44;;;37.09;27.74
23433;BME280;41331;45.412;10.992;2022-07-04T13:07:40;100686.81;;;36.89;27.44
23433;BME280;41331;45.412;10.992;2022-07-04T13:10:08;100684.13;;;36.74;28.64
23433;BME280;41331;45.412;10.992;2022-07-04T13:12:35;100686.19;;;36.74;28.21
23433;BME280;41331;45.412;10.992;2022-07-04T13:15:03;100686.34;;;36.59;28.49
23433;BME280;41331;45.412;10.992;2022-07-04T13:17:32;100684.28;;;36.60;28.52
23433;BME280;41331;45.412;10.992;2022-07-04T13:20:00;100684.25;;;36.54;29.14
23433;BME280;41331;45.412;10.992;2022-07-04T13:22:31;100685.91;;;36.66;28.52
23433;BME280;41331;45.412;10.992;2022-07-04T13:24:58;100678.13;;;36.61;28.54